sensor_id;sensor_type;location;lat;lon;timestamp;temperature;humidity
45104;DHT22;30865;51.288;4.572;2023-08-08T00:00:48;14.60;99.90
45104;DHT22;30865;51.288;4.572;2023-08-08T00:03:14;14.60;99.90
45104;DHT22;30865;51.288;4.572;2023-08-08T00:05:39;14.50;99.90
45104;DHT22;30865;51.288;4.572;2023-08-08T00:08:05;14.50;99.90
45104;DHT22;30865;51.288;4.572;2023-08-08T00:10:31;14.50;99.90
45104;DHT22;30865;51.288;4.572;2023-08-08T00:12:56;14.50;99.90
45104;DHT22;30865;51.288;4.572;2023-08-08T00:15:22;14.50;99.90
45104;DHT22;30865;51.288;4.572;2023-08-08T00:17:47;14.50;99.90
45104;DHT22;30865;51.288;4.572;2023-08-08T00:20:13;14.40;99.90
45104;DHT22;30865;51.288;4.572;2023-08-08T00:22:39;14.30;99.90
45104;DHT22;30865;51.288;4.572;2023-08-08T00:25:04;14.30;99.90
45104;DHT22;30865;51.288;4.572;2023-08-08T00:27:33;14.30;99.90
45104;DHT22;30865;51.288;4.572;2023-08-08T00:29:59;14.30;99.90
45104;DHT22;30865;51.288;4.572;2023-08-08T00:32:24;14.30;99.90
45104;DHT22;30865;51.288;4.572;2023-08-08T00:34:50;14.30;99.90
45104;DHT22;30865;51.288;4.572;2023-08-08T00:37:15;14.30;99.90
45104;DHT22;30865;51.288;4.572;2023-08-08T00:39:41;14.30;99.90
45104;DHT22;30865;51.288;4.572;2023-08-08T00:42:13;14.30;99.90
45104;DHT22;30865;51.288;4.572;2023-08-08T00:44:39;14.40;99.90
45104;DHT22;30865;51.288;4.572;2023-08-08T00:47:09;14.40;99.90
45104;DHT22;30865;51.288;4.572;2023-08-08T00:49:35;14.40;99.90
45104;DHT22;30865;51.288;4.572;2023-08-08T00:52:02;14.40;99.90
45104;DHT22;30865;51.288;4.572;2023-08-08T00:54:28;14.40;99.90
45104;DHT22;30865;51.288;4.572;2023-08-08T00:56:54;14.40;99.90
45104;DHT22;30865;51.288;4.572;2023-08-08T00:59:19;14.40;99.90
45104;DHT22;30865;51.288;4.572;2023-08-08T01:01:45;14.50;99.90
45104;DHT22;30865;51.288;4.572;2023-08-08T01:04:11;14.40;99.90
45104;DHT22;30865;51.288;4.572;2023-08-08T01:06:46;14.40;99.90
45104;DHT22;30865;51.288;4.572;2023-08-08T01:09:23;14.50;99.90
45104;DHT22;30865;51.288;4.572;2023-08-08T01:11:51;14.50;99.90
45104;DHT22;30865;51.288;4.572;2023-08-08T01:14:17;14.60;99.90
45104;DHT22;30865;51.288;4.572;2023-08-08T01:16:44;14.60;99.90
45104;DHT22;30865;51.288;4.572;2023-08-08T01:19:15;14.50;99.90
45104;DHT22;30865;51.288;4.572;2023-08-08T01:21:45;14.50;99.90
45104;DHT22;30865;51.288;4.572;2023-08-08T01:26:44;14.50;99.90
45104;DHT22;30865;51.288;4.572;2023-08-08T01:29:10;14.50;99.90
45104;DHT22;30865;51.288;4.572;2023-08-08T01:31:36;14.40;99.90
45104;DHT22;30865;51.288;4.572;2023-08-08T01:34:01;14.40;99.90
45104;DHT22;30865;51.288;4.572;2023-08-08T01:36:59;14.50;99.90
45104;DHT22;30865;51.288;4.572;2023-08-08T01:39:29;14.40;99.90
45104;DHT22;30865;51.288;4.572;2023-08-08T01:41:56;14.40;99.90
45104;DHT22;30865;51.288;4.572;2023-08-08T01:44:22;14.40;99.90
45104;DHT22;30865;51.288;4.572;2023-08-08T01:46:49;14.30;99.90
45104;DHT22;30865;51.288;4.572;2023-08-08T01:49:14;14.30;99.90
45104;DHT22;30865;51.288;4.572;2023-08-08T01:51:40;14.30;99.90
45104;DHT22;30865;51.288;4.572;2023-08-08T01:54:05;14.30;99.90
45104;DHT22;30865;51.288;4.572;2023-08-08T01:56:31;14.40;99.90
45104;DHT22;30865;51.288;4.572;2023-08-08T01:58:56;14.30;99.90
45104;DHT22;30865;51.288;4.572;2023-08-08T02:01:22;14.30;99.90
45104;DHT22;30865;51.288;4.572;2023-08-08T02:03:47;14.30;99.90
45104;DHT22;30865;51.288;4.572;2023-08-08T02:06:13;14.40;99.90
45104;DHT22;30865;51.288;4.572;2023-08-08T02:08:38;14.40;99.90
45104;DHT22;30865;51.288;4.572;2023-08-08T02:11:04;14.40;99.90
45104;DHT22;30865;51.288;4.572;2023-08-08T02:13:29;14.40;99.90
45104;DHT22;30865;51.288;4.572;2023-08-08T02:15:55;14.40;99.90
45104;DHT22;30865;51.288;4.572;2023-08-08T02:18:21;14.50;99.90
45104;DHT22;30865;51.288;4.572;2023-08-08T02:20:46;14.40;99.90
45104;DHT22;30865;51.288;4.572;2023-08-08T02:23:12;14.40;99.90
45104;DHT22;30865;51.288;4.572;2023-08-08T02:25:37;14.50;99.90
45104;DHT22;30865;51.288;4.572;2023-08-08T02:28:03;14.50;99.90
45104;DHT22;30865;51.288;4.572;2023-08-08T02:30:29;14.60;99.90
45104;DHT22;30865;51.288;4.572;2023-08-08T02:32:54;14.60;99.90
45104;DHT22;30865;51.288;4.572;2023-08-08T02:35:20;14.60;99.90
45104;DHT22;30865;51.288;4.572;2023-08-08T02:37:45;14.60;99.90
45104;DHT22;30865;51.288;4.572;2023-08-08T02:40:11;14.50;99.90
45104;DHT22;30865;51.288;4.572;2023-08-08T02:42:36;14.50;99.90
45104;DHT22;30865;51.288;4.572;2023-08-08T02:45:02;14.50;99.90
45104;DHT22;30865;51.288;4.572;2023-08-08T02:47:27;14.40;99.90
45104;DHT22;30865;51.288;4.572;2023-08-08T02:49:53;14.40;99.90
45104;DHT22;30865;51.288;4.572;2023-08-08T02:52:18;14.50;99.90
45104;DHT22;30865;51.288;4.572;2023-08-08T02:54:44;14.60;99.90
45104;DHT22;30865;51.288;4.572;2023-08-08T02:57:10;14.70;99.90
45104;DHT22;30865;51.288;4.572;2023-08-08T02:59:37;14.50;99.90
45104;DHT22;30865;51.288;4.572;2023-08-08T03:02:03;14.50;99.90
45104;DHT22;30865;51.288;4.572;2023-08-08T03:04:29;14.50;99.90
45104;DHT22;30865;51.288;4.572;2023-08-08T03:06:55;14.40;99.90
45104;DHT22;30865;51.288;4.572;2023-08-08T03:09:20;14.40;99.90
45104;DHT22;30865;51.288;4.572;2023-08-08T03:11:46;14.30;99.90
45104;DHT22;30865;51.288;4.572;2023-08-08T03:14:12;14.40;99.90
45104;DHT22;30865;51.288;4.572;2023-08-08T03:16:37;14.40;99.90
45104;DHT22;30865;51.288;4.572;2023-08-08T03:19:12;14.30;99.90
45104;DHT22;30865;51.288;4.572;2023-08-08T03:21:37;14.30;99.90
45104;DHT22;30865;51.288;4.572;2023-08-08T03:24:03;14.30;99.90
45104;DHT22;30865;51.288;4.572;2023-08-08T03:26:29;14.40;99.90
45104;DHT22;30865;51.288;4.572;2023-08-08T03:28:54;14.40;99.90
45104;DHT22;30865;51.288;4.572;2023-08-08T03:31:20;14.40;99.90
45104;DHT22;30865;51.288;4.572;2023-08-08T03:33:46;14.40;99.90
45104;DHT22;30865;51.288;4.572;2023-08-08T03:36:12;14.40;99.90
45104;DHT22;30865;51.288;4.572;2023-08-08T03:38:38;14.40;99.90
45104;DHT22;30865;51.288;4.572;2023-08-08T03:41:04;14.40;99.90
45104;DHT22;30865;51.288;4.572;2023-08-08T03:43:29;14.40;99.90
45104;DHT22;30865;51.288;4.572;2023-08-08T03:45:55;14.50;99.90
45104;DHT22;30865;51.288;4.572;2023-08-08T03:48:20;14.50;99.90
45104;DHT22;30865;51.288;4.572;2023-08-08T03:50:46;14.60;99.90
45104;DHT22;30865;51.288;4.572;2023-08-08T03:53:12;14.60;99.90
45104;DHT22;30865;51.288;4.572;2023-08-08T03:55:38;14.60;99.90
45104;DHT22;30865;51.288;4.572;2023-08-08T03:58:04;14.50;99.90
45104;DHT22;30865;51.288;4.572;2023-08-08T04:00:30;14.60;99.90
45104;DHT22;30865;51.288;4.572;2023-08-08T04:02:56;14.80;99.90
45104;DHT22;30865;51.288;4.572;2023-08-08T04:05:21;14.80;99.90
45104;DHT22;30865;51.288;4.572;2023-08-08T04:07:47;14.70;99.90
45104;DHT22;30865;51.288;4.572;2023-08-08T04:10:12;14.60;99.90
45104;DHT22;30865;51.288;4.572;2023-08-08T04:12:38;14.50;99.90
45104;DHT22;30865;51.288;4.572;2023-08-08T04:15:04;14.50;99.90
45104;DHT22;30865;51.288;4.572;2023-08-08T04:17:30;14.50;99.90
45104;DHT22;30865;51.288;4.572;2023-08-08T04:19:55;14.50;99.90
45104;DHT22;30865;51.288;4.572;2023-08-08T04:22:21;14.50;99.90
45104;DHT22;30865;51.288;4.572;2023-08-08T04:24:46;14.70;99.90
45104;DHT22;30865;51.288;4.572;2023-08-08T04:27:12;14.70;99.90
45104;DHT22;30865;51.288;4.572;2023-08-08T04:29:38;14.70;99.90
45104;DHT22;30865;51.288;4.572;2023-08-08T04:32:04;14.70;99.90
45104;DHT22;30865;51.288;4.572;2023-08-08T04:34:29;14.60;99.90
45104;DHT22;30865;51.288;4.572;2023-08-08T04:36:55;14.60;99.90
45104;DHT22;30865;51.288;4.572;2023-08-08T04:39:20;14.60;99.90
45104;DHT22;30865;51.288;4.572;2023-08-08T04:41:46;14.80;99.90
45104;DHT22;30865;51.288;4.572;2023-08-08T04:44:11;14.70;99.90
45104;DHT22;30865;51.288;4.572;2023-08-08T04:46:37;14.80;99.90
45104;DHT22;30865;51.288;4.572;2023-08-08T04:49:02;14.80;99.90
45104;DHT22;30865;51.288;4.572;2023-08-08T04:51:28;14.80;99.90
45104;DHT22;30865;51.288;4.572;2023-08-08T04:53:53;14.70;99.90
45104;DHT22;30865;51.288;4.572;2023-08-08T04:56:19;14.80;99.90
45104;DHT22;30865;51.288;4.572;2023-08-08T04:58:45;14.80;99.90
45104;DHT22;30865;51.288;4.572;2023-08-08T05:01:10;14.90;99.90
45104;DHT22;30865;51.288;4.572;2023-08-08T05:03:39;14.80;99.90
45104;DHT22;30865;51.288;4.572;2023-08-08T05:06:05;14.80;99.90
45104;DHT22;30865;51.288;4.572;2023-08-08T05:08:30;14.80;99.90
45104;DHT22;30865;51.288;4.572;2023-08-08T05:10:56;14.80;99.90
45104;DHT22;30865;51.288;4.572;2023-08-08T05:13:21;14.80;99.90
45104;DHT22;30865;51.288;4.572;2023-08-08T05:15:47;14.80;99.90
45104;DHT22;30865;51.288;4.572;2023-08-08T05:18:12;14.80;99.90
45104;DHT22;30865;51.288;4.572;2023-08-08T05:20:38;14.70;99.90
45104;DHT22;30865;51.288;4.572;2023-08-08T05:23:04;14.70;99.90
45104;DHT22;30865;51.288;4.572;2023-08-08T05:25:30;14.70;99.90
45104;DHT22;30865;51.288;4.572;2023-08-08T05:27:55;14.70;99.90
45104;DHT22;30865;51.288;4.572;2023-08-08T05:30:21;14.80;99.90
45104;DHT22;30865;51.288;4.572;2023-08-08T05:32:47;14.90;99.90
45104;DHT22;30865;51.288;4.572;2023-08-08T05:35:12;14.90;99.90
45104;DHT22;30865;51.288;4.572;2023-08-08T05:37:38;14.90;99.90
45104;DHT22;30865;51.288;4.572;2023-08-08T05:40:04;14.90;99.90
45104;DHT22;30865;51.288;4.572;2023-08-08T05:42:31;15.00;99.90
45104;DHT22;30865;51.288;4.572;2023-08-08T05:44:57;15.00;99.90
45104;DHT22;30865;51.288;4.572;2023-08-08T05:47:22;15.10;99.90
45104;DHT22;30865;51.288;4.572;2023-08-08T05:49:48;15.20;99.90
45104;DHT22;30865;51.288;4.572;2023-08-08T05:52:14;15.30;99.90
45104;DHT22;30865;51.288;4.572;2023-08-08T05:54:39;15.30;99.90
45104;DHT22;30865;51.288;4.572;2023-08-08T05:57:05;15.40;99.90
45104;DHT22;30865;51.288;4.572;2023-08-08T05:59:30;15.40;99.90
45104;DHT22;30865;51.288;4.572;2023-08-08T06:01:56;15.50;99.90
45104;DHT22;30865;51.288;4.572;2023-08-08T06:04:21;15.60;99.90
45104;DHT22;30865;51.288;4.572;2023-08-08T06:06:47;15.80;99.90
45104;DHT22;30865;51.288;4.572;2023-08-08T06:09:15;15.80;99.90
45104;DHT22;30865;51.288;4.572;2023-08-08T06:11:40;15.90;99.90
45104;DHT22;30865;51.288;4.572;2023-08-08T06:14:06;16.20;99.90
45104;DHT22;30865;51.288;4.572;2023-08-08T06:16:31;16.30;99.90
45104;DHT22;30865;51.288;4.572;2023-08-08T06:18:57;16.30;99.90
45104;DHT22;30865;51.288;4.572;2023-08-08T06:21:22;16.50;99.90
45104;DHT22;30865;51.288;4.572;2023-08-08T06:23:48;16.50;99.90
45104;DHT22;30865;51.288;4.572;2023-08-08T06:26:20;16.60;99.90
45104;DHT22;30865;51.288;4.572;2023-08-08T06:28:46;16.80;99.90
45104;DHT22;30865;51.288;4.572;2023-08-08T06:31:13;16.90;99.90
45104;DHT22;30865;51.288;4.572;2023-08-08T06:33:38;17.10;99.90
45104;DHT22;30865;51.288;4.572;2023-08-08T06:36:04;17.40;99.90
45104;DHT22;30865;51.288;4.572;2023-08-08T06:38:30;17.40;99.90
45104;DHT22;30865;51.288;4.572;2023-08-08T06:40:59;17.40;99.90
45104;DHT22;30865;51.288;4.572;2023-08-08T06:43:25;17.70;99.90
45104;DHT22;30865;51.288;4.572;2023-08-08T06:45:51;18.20;99.90
45104;DHT22;30865;51.288;4.572;2023-08-08T06:48:16;18.50;99.90
45104;DHT22;30865;51.288;4.572;2023-08-08T06:50:42;18.50;99.90
45104;DHT22;30865;51.288;4.572;2023-08-08T06:53:08;18.20;99.90
45104;DHT22;30865;51.288;4.572;2023-08-08T06:55:33;18.10;99.90
45104;DHT22;30865;51.288;4.572;2023-08-08T06:57:59;18.00;99.90
45104;DHT22;30865;51.288;4.572;2023-08-08T07:00:24;18.20;99.90
45104;DHT22;30865;51.288;4.572;2023-08-08T07:02:52;18.30;99.90
45104;DHT22;30865;51.288;4.572;2023-08-08T07:05:18;18.50;99.90
45104;DHT22;30865;51.288;4.572;2023-08-08T07:07:43;18.80;99.90
45104;DHT22;30865;51.288;4.572;2023-08-08T07:10:10;19.10;99.90
45104;DHT22;30865;51.288;4.572;2023-08-08T07:12:37;19.20;99.90
45104;DHT22;30865;51.288;4.572;2023-08-08T07:15:02;19.30;99.90
45104;DHT22;30865;51.288;4.572;2023-08-08T07:17:28;19.30;99.90
45104;DHT22;30865;51.288;4.572;2023-08-08T07:19:53;19.60;99.90
45104;DHT22;30865;51.288;4.572;2023-08-08T07:22:19;19.70;99.90
45104;DHT22;30865;51.288;4.572;2023-08-08T07:24:44;19.60;99.90
45104;DHT22;30865;51.288;4.572;2023-08-08T07:27:10;19.60;99.90
45104;DHT22;30865;51.288;4.572;2023-08-08T07:29:35;19.90;99.90
45104;DHT22;30865;51.288;4.572;2023-08-08T07:32:03;19.30;99.90
45104;DHT22;30865;51.288;4.572;2023-08-08T07:34:29;19.90;99.90
45104;DHT22;30865;51.288;4.572;2023-08-08T07:36:55;20.00;99.90
45104;DHT22;30865;51.288;4.572;2023-08-08T07:39:21;19.90;99.50
45104;DHT22;30865;51.288;4.572;2023-08-08T07:41:47;19.50;99.90
45104;DHT22;30865;51.288;4.572;2023-08-08T07:44:12;19.90;98.90
45104;DHT22;30865;51.288;4.572;2023-08-08T07:46:38;20.00;98.00
45104;DHT22;30865;51.288;4.572;2023-08-08T07:49:03;20.40;97.30
45104;DHT22;30865;51.288;4.572;2023-08-08T07:51:30;20.50;96.50
45104;DHT22;30865;51.288;4.572;2023-08-08T07:53:56;20.40;94.90
45104;DHT22;30865;51.288;4.572;2023-08-08T07:56:22;20.70;93.10
45104;DHT22;30865;51.288;4.572;2023-08-08T07:58:47;20.70;92.20
45104;DHT22;30865;51.288;4.572;2023-08-08T08:01:13;20.50;93.80
45104;DHT22;30865;51.288;4.572;2023-08-08T08:03:39;20.40;90.50
45104;DHT22;30865;51.288;4.572;2023-08-08T08:06:05;20.20;87.30
45104;DHT22;30865;51.288;4.572;2023-08-08T08:08:30;20.10;90.60
45104;DHT22;30865;51.288;4.572;2023-08-08T08:10:56;20.00;90.50
45104;DHT22;30865;51.288;4.572;2023-08-08T08:13:21;19.90;87.30
45104;DHT22;30865;51.288;4.572;2023-08-08T08:15:47;19.80;89.70
45104;DHT22;30865;51.288;4.572;2023-08-08T08:18:13;19.90;87.40
45104;DHT22;30865;51.288;4.572;2023-08-08T08:20:39;19.90;89.00
45104;DHT22;30865;51.288;4.572;2023-08-08T08:23:05;19.90;85.50
45104;DHT22;30865;51.288;4.572;2023-08-08T08:25:30;19.60;88.10
45104;DHT22;30865;51.288;4.572;2023-08-08T08:27:57;19.90;89.00
45104;DHT22;30865;51.288;4.572;2023-08-08T08:30:23;20.40;87.90
45104;DHT22;30865;51.288;4.572;2023-08-08T08:32:51;20.30;87.40
45104;DHT22;30865;51.288;4.572;2023-08-08T08:35:17;20.10;86.20
45104;DHT22;30865;51.288;4.572;2023-08-08T08:37:42;20.00;85.00
45104;DHT22;30865;51.288;4.572;2023-08-08T08:40:09;20.00;84.50
45104;DHT22;30865;51.288;4.572;2023-08-08T08:42:35;20.20;84.80
45104;DHT22;30865;51.288;4.572;2023-08-08T08:45:02;20.40;84.20
45104;DHT22;30865;51.288;4.572;2023-08-08T08:47:30;20.50;83.70
45104;DHT22;30865;51.288;4.572;2023-08-08T08:49:57;20.40;85.40
45104;DHT22;30865;51.288;4.572;2023-08-08T08:52:23;20.20;85.20
45104;DHT22;30865;51.288;4.572;2023-08-08T08:54:51;20.20;86.50
45104;DHT22;30865;51.288;4.572;2023-08-08T08:57:17;20.10;84.00
45104;DHT22;30865;51.288;4.572;2023-08-08T08:59:42;20.00;85.00
45104;DHT22;30865;51.288;4.572;2023-08-08T09:02:09;20.10;84.60
45104;DHT22;30865;51.288;4.572;2023-08-08T09:04:36;20.20;86.80
45104;DHT22;30865;51.288;4.572;2023-08-08T09:07:04;20.30;85.20
45104;DHT22;30865;51.288;4.572;2023-08-08T09:09:33;20.40;81.40
45104;DHT22;30865;51.288;4.572;2023-08-08T09:12:00;20.90;78.80
45104;DHT22;30865;51.288;4.572;2023-08-08T09:14:26;21.70;77.30
45104;DHT22;30865;51.288;4.572;2023-08-08T09:16:55;21.80;76.10
45104;DHT22;30865;51.288;4.572;2023-08-08T09:19:24;21.60;71.90
45104;DHT22;30865;51.288;4.572;2023-08-08T09:21:51;21.40;73.10
45104;DHT22;30865;51.288;4.572;2023-08-08T09:24:18;21.90;72.00
45104;DHT22;30865;51.288;4.572;2023-08-08T09:26:44;22.40;69.70
45104;DHT22;30865;51.288;4.572;2023-08-08T09:29:11;22.30;68.30
45104;DHT22;30865;51.288;4.572;2023-08-08T09:31:37;21.40;70.50
45104;DHT22;30865;51.288;4.572;2023-08-08T09:34:04;21.70;72.10
45104;DHT22;30865;51.288;4.572;2023-08-08T09:36:30;20.90;74.10
45104;DHT22;30865;51.288;4.572;2023-08-08T09:38:55;21.30;74.80
45104;DHT22;30865;51.288;4.572;2023-08-08T09:41:24;21.40;75.10
45104;DHT22;30865;51.288;4.572;2023-08-08T09:43:52;21.70;72.20
45104;DHT22;30865;51.288;4.572;2023-08-08T09:46:22;21.30;70.80
45104;DHT22;30865;51.288;4.572;2023-08-08T09:48:48;21.30;69.20
45104;DHT22;30865;51.288;4.572;2023-08-08T09:51:14;21.10;69.20
45104;DHT22;30865;51.288;4.572;2023-08-08T09:53:40;21.40;68.50
45104;DHT22;30865;51.288;4.572;2023-08-08T09:56:07;21.70;65.60
45104;DHT22;30865;51.288;4.572;2023-08-08T09:58:33;21.70;64.70
45104;DHT22;30865;51.288;4.572;2023-08-08T10:00:59;21.90;63.20
45104;DHT22;30865;51.288;4.572;2023-08-08T10:03:25;21.70;61.70
45104;DHT22;30865;51.288;4.572;2023-08-08T10:05:52;21.90;61.80
45104;DHT22;30865;51.288;4.572;2023-08-08T10:08:18;21.90;62.40
45104;DHT22;30865;51.288;4.572;2023-08-08T10:10:45;21.90;63.60
45104;DHT22;30865;51.288;4.572;2023-08-08T10:13:19;21.80;62.40
45104;DHT22;30865;51.288;4.572;2023-08-08T10:15:46;21.20;64.60
45104;DHT22;30865;51.288;4.572;2023-08-08T10:18:13;21.80;63.70
45104;DHT22;30865;51.288;4.572;2023-08-08T10:20:39;21.80;62.50
45104;DHT22;30865;51.288;4.572;2023-08-08T10:23:07;22.10;61.80
45104;DHT22;30865;51.288;4.572;2023-08-08T10:25:32;22.80;58.90
45104;DHT22;30865;51.288;4.572;2023-08-08T10:28:06;22.80;57.70
45104;DHT22;30865;51.288;4.572;2023-08-08T10:30:48;21.90;58.50
45104;DHT22;30865;51.288;4.572;2023-08-08T10:36:03;22.20;56.70
45104;DHT22;30865;51.288;4.572;2023-08-08T10:38:58;21.90;56.10
45104;DHT22;30865;51.288;4.572;2023-08-08T10:41:26;22.10;57.30
45104;DHT22;30865;51.288;4.572;2023-08-08T10:43:54;22.60;56.80
45104;DHT22;30865;51.288;4.572;2023-08-08T10:46:24;22.70;56.70
45104;DHT22;30865;51.288;4.572;2023-08-08T10:48:56;22.90;56.20
45104;DHT22;30865;51.288;4.572;2023-08-08T10:51:22;22.50;55.90
45104;DHT22;30865;51.288;4.572;2023-08-08T10:53:51;22.60;53.80
45104;DHT22;30865;51.288;4.572;2023-08-08T10:56:18;22.60;55.60
45104;DHT22;30865;51.288;4.572;2023-08-08T10:58:48;22.60;53.70
45104;DHT22;30865;51.288;4.572;2023-08-08T11:01:14;22.70;54.10
45104;DHT22;30865;51.288;4.572;2023-08-08T11:03:42;22.90;51.60
45104;DHT22;30865;51.288;4.572;2023-08-08T11:06:08;23.00;51.70
45104;DHT22;30865;51.288;4.572;2023-08-08T11:08:35;22.70;50.90
45104;DHT22;30865;51.288;4.572;2023-08-08T11:11:02;23.00;50.80
45104;DHT22;30865;51.288;4.572;2023-08-08T11:13:28;23.20;49.80
45104;DHT22;30865;51.288;4.572;2023-08-08T11:15:54;22.80;48.70
45104;DHT22;30865;51.288;4.572;2023-08-08T11:18:20;23.00;47.70
45104;DHT22;30865;51.288;4.572;2023-08-08T11:20:48;23.30;47.60
45104;DHT22;30865;51.288;4.572;2023-08-08T11:23:14;22.70;47.30
45104;DHT22;30865;51.288;4.572;2023-08-08T11:25:41;22.80;48.80
45104;DHT22;30865;51.288;4.572;2023-08-08T11:28:08;22.90;48.70
45104;DHT22;30865;51.288;4.572;2023-08-08T11:30:36;23.30;49.30
45104;DHT22;30865;51.288;4.572;2023-08-08T11:33:02;22.90;48.10
45104;DHT22;30865;51.288;4.572;2023-08-08T11:35:28;23.10;47.50
45104;DHT22;30865;51.288;4.572;2023-08-08T11:37:56;23.60;47.00
45104;DHT22;30865;51.288;4.572;2023-08-08T11:40:28;23.30;47.00
45104;DHT22;30865;51.288;4.572;2023-08-08T11:42:54;23.70;47.70
45104;DHT22;30865;51.288;4.572;2023-08-08T11:45:21;23.20;48.20
45104;DHT22;30865;51.288;4.572;2023-08-08T11:47:51;23.30;46.80
45104;DHT22;30865;51.288;4.572;2023-08-08T11:50:19;23.40;45.60
45104;DHT22;30865;51.288;4.572;2023-08-08T11:52:45;23.30;45.00
45104;DHT22;30865;51.288;4.572;2023-08-08T11:55:11;23.10;45.20
45104;DHT22;30865;51.288;4.572;2023-08-08T11:57:39;23.40;45.40
45104;DHT22;30865;51.288;4.572;2023-08-08T12:00:09;24.00;44.80
45104;DHT22;30865;51.288;4.572;2023-08-08T12:02:39;23.60;46.10
45104;DHT22;30865;51.288;4.572;2023-08-08T12:05:05;23.10;47.10
45104;DHT22;30865;51.288;4.572;2023-08-08T12:07:32;23.00;48.10
45104;DHT22;30865;51.288;4.572;2023-08-08T12:09:59;23.40;47.90
45104;DHT22;30865;51.288;4.572;2023-08-08T12:12:26;23.80;47.60
45104;DHT22;30865;51.288;4.572;2023-08-08T12:14:54;24.00;47.40
45104;DHT22;30865;51.288;4.572;2023-08-08T12:17:21;24.00;46.30
45104;DHT22;30865;51.288;4.572;2023-08-08T12:19:47;23.30;46.30
45104;DHT22;30865;51.288;4.572;2023-08-08T12:22:13;23.20;45.80
45104;DHT22;30865;51.288;4.572;2023-08-08T12:24:39;23.50;45.70
45104;DHT22;30865;51.288;4.572;2023-08-08T12:27:05;23.80;45.80
45104;DHT22;30865;51.288;4.572;2023-08-08T12:29:30;24.20;45.70
45104;DHT22;30865;51.288;4.572;2023-08-08T12:31:56;24.50;45.30
45104;DHT22;30865;51.288;4.572;2023-08-08T12:34:21;24.30;44.00
45104;DHT22;30865;51.288;4.572;2023-08-08T12:36:47;23.70;45.00
45104;DHT22;30865;51.288;4.572;2023-08-08T12:39:12;24.10;45.20
45104;DHT22;30865;51.288;4.572;2023-08-08T12:41:39;24.30;44.70
45104;DHT22;30865;51.288;4.572;2023-08-08T12:44:05;24.60;44.10
45104;DHT22;30865;51.288;4.572;2023-08-08T12:46:30;24.20;43.40
45104;DHT22;30865;51.288;4.572;2023-08-08T12:48:56;24.00;45.70
45104;DHT22;30865;51.288;4.572;2023-08-08T12:51:21;23.80;45.80
45104;DHT22;30865;51.288;4.572;2023-08-08T12:53:47;24.10;46.10
45104;DHT22;30865;51.288;4.572;2023-08-08T12:56:12;23.90;46.60
45104;DHT22;30865;51.288;4.572;2023-08-08T12:58:38;24.10;47.30
45104;DHT22;30865;51.288;4.572;2023-08-08T13:01:06;24.10;46.80
45104;DHT22;30865;51.288;4.572;2023-08-08T13:03:31;24.50;47.00
45104;DHT22;30865;51.288;4.572;2023-08-08T13:05:59;24.40;45.00
45104;DHT22;30865;51.288;4.572;2023-08-08T13:08:25;24.00;45.60
45104;DHT22;30865;51.288;4.572;2023-08-08T13:10:50;23.90;46.40
45104;DHT22;30865;51.288;4.572;2023-08-08T13:13:16;23.40;47.00
45104;DHT22;30865;51.288;4.572;2023-08-08T13:15:41;23.60;47.20
45104;DHT22;30865;51.288;4.572;2023-08-08T13:18:07;23.60;47.20
45104;DHT22;30865;51.288;4.572;2023-08-08T13:20:32;23.20;47.60
45104;DHT22;30865;51.288;4.572;2023-08-08T13:22:58;23.30;47.70
45104;DHT22;30865;51.288;4.572;2023-08-08T13:25:23;23.20;47.90
45104;DHT22;30865;51.288;4.572;2023-08-08T13:27:49;23.10;48.70
45104;DHT22;30865;51.288;4.572;2023-08-08T13:30:15;22.90;49.60
45104;DHT22;30865;51.288;4.572;2023-08-08T13:32:43;23.10;50.60
45104;DHT22;30865;51.288;4.572;2023-08-08T13:35:09;22.70;50.90
45104;DHT22;30865;51.288;4.572;2023-08-08T13:37:34;23.10;50.60
45104;DHT22;30865;51.288;4.572;2023-08-08T13:40:00;23.40;50.00
45104;DHT22;30865;51.288;4.572;2023-08-08T13:42:25;23.60;49.70
45104;DHT22;30865;51.288;4.572;2023-08-08T13:44:51;23.70;49.60
45104;DHT22;30865;51.288;4.572;2023-08-08T13:47:16;23.20;51.10
45104;DHT22;30865;51.288;4.572;2023-08-08T13:49:42;23.50;50.20
45104;DHT22;30865;51.288;4.572;2023-08-08T13:52:08;24.10;49.30
45104;DHT22;30865;51.288;4.572;2023-08-08T13:54:34;24.30;49.40
45104;DHT22;30865;51.288;4.572;2023-08-08T13:56:59;24.50;48.30
45104;DHT22;30865;51.288;4.572;2023-08-08T13:59:25;23.80;48.60
45104;DHT22;30865;51.288;4.572;2023-08-08T14:01:52;23.70;50.00
45104;DHT22;30865;51.288;4.572;2023-08-08T14:04:17;24.10;50.00
45104;DHT22;30865;51.288;4.572;2023-08-08T14:06:43;24.30;49.90
45104;DHT22;30865;51.288;4.572;2023-08-08T14:09:08;24.20;50.10
45104;DHT22;30865;51.288;4.572;2023-08-08T14:11:37;24.30;47.10
45104;DHT22;30865;51.288;4.572;2023-08-08T14:14:02;24.60;46.60
45104;DHT22;30865;51.288;4.572;2023-08-08T14:16:28;23.70;47.50
45104;DHT22;30865;51.288;4.572;2023-08-08T14:18:53;23.80;48.00
45104;DHT22;30865;51.288;4.572;2023-08-08T14:21:19;23.60;48.90
45104;DHT22;30865;51.288;4.572;2023-08-08T14:23:44;23.40;49.70
45104;DHT22;30865;51.288;4.572;2023-08-08T14:26:10;23.30;49.90
45104;DHT22;30865;51.288;4.572;2023-08-08T14:28:36;23.10;49.70
45104;DHT22;30865;51.288;4.572;2023-08-08T14:31:02;23.10;49.80
45104;DHT22;30865;51.288;4.572;2023-08-08T14:33:27;23.10;50.10
45104;DHT22;30865;51.288;4.572;2023-08-08T14:35:53;22.70;50.60
45104;DHT22;30865;51.288;4.572;2023-08-08T14:38:23;22.70;51.20
45104;DHT22;30865;51.288;4.572;2023-08-08T14:40:48;22.70;51.50
45104;DHT22;30865;51.288;4.572;2023-08-08T14:43:14;22.50;51.30
45104;DHT22;30865;51.288;4.572;2023-08-08T14:45:39;22.60;52.00
45104;DHT22;30865;51.288;4.572;2023-08-08T14:48:05;22.50;52.00
45104;DHT22;30865;51.288;4.572;2023-08-08T14:50:32;22.50;53.00
45104;DHT22;30865;51.288;4.572;2023-08-08T14:52:57;22.40;52.70
45104;DHT22;30865;51.288;4.572;2023-08-08T14:55:23;22.30;53.40
45104;DHT22;30865;51.288;4.572;2023-08-08T14:57:48;22.30;54.00
45104;DHT22;30865;51.288;4.572;2023-08-08T15:00:14;22.40;54.30
45104;DHT22;30865;51.288;4.572;2023-08-08T15:02:40;22.40;54.00
45104;DHT22;30865;51.288;4.572;2023-08-08T15:05:05;22.50;53.90
45104;DHT22;30865;51.288;4.572;2023-08-08T15:07:31;22.50;54.40
45104;DHT22;30865;51.288;4.572;2023-08-08T15:09:57;22.50;54.70
45104;DHT22;30865;51.288;4.572;2023-08-08T15:12:22;22.60;55.20
45104;DHT22;30865;51.288;4.572;2023-08-08T15:14:48;22.60;55.10
45104;DHT22;30865;51.288;4.572;2023-08-08T15:17:14;22.30;54.40
45104;DHT22;30865;51.288;4.572;2023-08-08T15:19:39;22.60;55.10
45104;DHT22;30865;51.288;4.572;2023-08-08T15:22:05;22.20;53.90
45104;DHT22;30865;51.288;4.572;2023-08-08T15:24:31;22.20;54.90
45104;DHT22;30865;51.288;4.572;2023-08-08T15:26:58;22.10;55.60
45104;DHT22;30865;51.288;4.572;2023-08-08T15:29:23;22.10;56.30